Time;durP1;ratioP1;P1;durP2;ratioP2;P2;SDS_P1;SDS_P2;PMS_P1;PMS_P2;Temp;Humidity;BMP_temperature;BMP_pressure;BME280_temperature;BME280_humidity;BME280_pressure;Samples;Min_cycle;Max_cycle;Signal;HPM_P1;HPM_P2
2023/04/12 00:02:26;;;;;;;10.40;4.30;;;;;;;6.58;100.00;100036.02;217484;1292;138697;-92
2023/04/12 00:07:28;;;;;;;10.30;4.20;;;;;;;6.57;100.00;100027.56;218035;1291;138933;-91
2023/04/12 00:12:29;;;;;;;12.50;4.60;;;;;;;6.56;100.00;100033.55;217553;1291;139167;-91
2023/04/12 00:17:30;;;;;;;9.80;4.50;;;;;;;6.52;100.00;100031.45;218170;1291;95979;-90
2023/04/12 00:22:31;;;;;;;11.50;4.90;;;;;;;6.52;100.00;100029.26;217577;1291;139343;-93
2023/04/12 00:27:32;;;;;;;13.10;4.60;;;;;;;6.49;100.00;100027.55;218118;1294;138518;-91
2023/04/12 00:32:32;;;;;;;11.10;4.60;;;;;;;6.45;100.00;100029.19;217381;1291;138787;-92
2023/04/12 00:37:35;;;;;;;11.20;4.90;;;;;;;6.43;100.00;100027.92;217931;1291;138762;-92
2023/04/12 00:42:36;;;;;;;12.30;5.20;;;;;;;6.43;100.00;100027.98;217577;1291;138700;-92
2023/04/12 00:47:39;;;;;;;11.90;4.70;;;;;;;6.41;100.00;100029.98;218058;1291;138678;-95
2023/04/12 00:52:40;;;;;;;12.10;5.00;;;;;;;6.37;100.00;100031.77;217564;1291;138219;-93
2023/04/12 00:57:41;;;;;;;11.30;5.10;;;;;;;6.35;100.00;100030.63;217949;1291;138639;-91
2023/04/12 01:02:46;;;;;;;9.90;4.90;;;;;;;6.35;100.00;100027.11;217387;1291;142381;-91
2023/04/12 01:07:54;;;;;;;10.90;4.70;;;;;;;6.34;100.00;100028.66;218003;1292;139131;-92
2023/04/12 01:13:13;;;;;;;11.60;5.00;;;;;;;6.32;100.00;100026.73;217605;1292;139296;-93
2023/04/12 01:18:19;;;;;;;10.60;4.50;;;;;;;6.30;100.00;100027.70;218114;1292;138722;-93
2023/04/12 01:23:23;;;;;;;10.50;4.60;;;;;;;6.28;100.00;100033.54;217641;1291;139260;-93
2023/04/12 01:28:31;;;;;;;10.50;4.70;;;;;;;6.26;100.00;100035.13;218107;1291;138601;-92
2023/04/12 01:33:35;;;;;;;12.40;4.60;;;;;;;6.23;100.00;100038.64;217496;1291;138854;-93
2023/04/12 01:38:38;;;;;;;8.10;4.00;;;;;;;6.21;100.00;100034.05;217996;1291;139752;-93
2023/04/12 01:43:46;;;;;;;9.80;4.40;;;;;;;6.16;100.00;100027.40;217521;1291;138850;-94
2023/04/12 01:48:51;;;;;;;16.10;5.10;;;;;;;6.15;100.00;100031.34;218139;1292;139747;-94
2023/04/12 01:54:24;;;;;;;9.00;4.60;;;;;;;6.09;100.00;100026.37;217611;1292;138801;-92
2023/04/12 01:59:38;;;;;;;9.40;4.10;;;;;;;6.04;100.00;100029.24;217589;1292;138915;-94
2023/04/12 02:04:39;;;;;;;9.40;4.60;;;;;;;6.01;100.00;100032.42;218237;1294;106034;-94
2023/04/12 02:09:40;;;;;;;14.30;5.30;;;;;;;5.98;100.00;100029.41;217811;1292;138911;-93
2023/04/12 02:14:41;;;;;;;10.10;4.40;;;;;;;5.95;100.00;100034.41;217966;1292;139479;-94
2023/04/12 02:19:42;;;;;;;9.50;4.60;;;;;;;5.90;100.00;100034.67;217604;1292;139220;-92
2023/04/12 02:24:43;;;;;;;11.30;4.70;;;;;;;5.88;100.00;100033.23;218144;1293;139187;-92
2023/04/12 02:29:44;;;;;;;9.80;4.00;;;;;;;5.87;100.00;100027.20;217444;1292;139250;-93
2023/04/12 02:34:50;;;;;;;11.90;4.50;;;;;;;5.87;100.00;100029.84;218310;1291;96529;-93
2023/04/12 02:39:51;;;;;;;11.40;5.00;;;;;;;5.87;100.00;100026.65;217517;1292;139439;-93
2023/04/12 02:44:51;;;;;;;11.40;4.90;;;;;;;5.87;100.00;100020.50;218078;1292;139586;-94
2023/04/12 02:49:52;;;;;;;12.40;4.40;;;;;;;5.86;100.00;100020.06;217536;1292;139493;-92
2023/04/12 02:54:53;;;;;;;9.10;4.10;;;;;;;5.82;100.00;100016.95;218005;1294;139218;-92
2023/04/12 02:59:54;;;;;;;12.50;4.90;;;;;;;5.83;100.00;100016.36;217442;1292;139213;-92
2023/04/12 03:04:55;;;;;;;10.40;5.00;;;;;;;5.83;100.00;100012.21;218195;1292;96313;-94
2023/04/12 03:09:56;;;;;;;10.50;5.10;;;;;;;5.82;100.00;100007.13;217458;1291;138905;-92
2023/04/12 03:14:56;;;;;;;10.60;4.70;;;;;;;5.81;100.00;100001.37;217952;1292;139313;-93
2023/04/12 03:20:08;;;;;;;10.50;4.40;;;;;;;5.79;100.00;99995.55;217477;1293;139250;-93
2023/04/12 03:25:10;;;;;;;10.00;4.90;;;;;;;5.80;100.00;99989.06;217855;1291;139592;-92
2023/04/12 03:30:10;;;;;;;16.00;4.60;;;;;;;5.78;100.00;99986.71;217551;1292;139010;-92
2023/04/12 03:35:11;;;;;;;11.70;5.10;;;;;;;5.78;100.00;99979.61;218184;1291;96639;-94
2023/04/12 03:40:12;;;;;;;9.70;5.00;;;;;;;5.78;100.00;99975.02;217549;1291;139035;-94
2023/04/12 03:45:17;;;;;;;12.60;4.70;;;;;;;5.75;100.00;99973.85;218082;1291;139143;-94
2023/04/12 03:50:18;;;;;;;11.90;5.40;;;;;;;5.74;100.00;99977.26;217331;1295;139212;-93
2023/04/12 03:55:19;;;;;;;11.10;4.80;;;;;;;5.73;100.00;99977.55;218105;1292;138975;-94
2023/04/12 04:00:20;;;;;;;11.20;5.30;;;;;;;5.68;100.00;99979.48;217381;1292;139228;-95
2023/04/12 04:05:20;;;;;;;12.30;5.30;;;;;;;5.63;100.00;99990.25;218205;1292;96038;-93
2023/04/12 04:10:21;;;;;;;15.50;5.20;;;;;;;5.57;100.00;99986.45;217471;1292;139423;-92
2023/04/12 04:15:24;;;;;;;11.30;5.40;;;;;;;5.55;100.00;99987.87;217752;1291;390447;-95
2023/04/12 04:20:25;;;;;;;12.00;5.30;;;;;;;5.54;100.00;99989.25;217332;1293;139088;-94
2023/04/12 04:25:28;;;;;;;11.30;5.60;;;;;;;5.54;100.00;99986.30;218185;1290;139021;-94
2023/04/12 04:30:29;;;;;;;13.50;5.80;;;;;;;5.54;100.00;99975.77;217619;1292;139172;-94
2023/04/12 04:35:30;;;;;;;11.50;5.50;;;;;;;5.54;100.00;99982.86;218376;1291;95974;-94
2023/04/12 04:40:31;;;;;;;11.10;5.10;;;;;;;5.55;100.00;99981.72;217601;1291;139098;-93
2023/04/12 04:45:32;;;;;;;16.30;7.50;;;;;;;5.56;100.00;99984.00;218170;1290;138869;-96
2023/04/12 04:50:33;;;;;;;12.30;5.80;;;;;;;5.59;100.00;99988.53;217701;1291;138988;-94
2023/04/12 04:55:34;;;;;;;12.90;5.60;;;;;;;5.64;100.00;99996.82;218121;1291;138508;-94
2023/04/12 05:00:35;;;;;;;14.70;5.90;;;;;;;5.68;100.00;99995.27;217712;1291;139064;-94
2023/04/12 05:05:35;;;;;;;13.80;5.90;;;;;;;5.73;100.00;100003.04;218151;1291;138499;-92
2023/04/12 05:10:36;;;;;;;12.70;6.30;;;;;;;5.75;100.00;100002.79;217924;1292;138835;-94
2023/04/12 05:15:39;;;;;;;13.10;5.80;;;;;;;5.78;100.00;100003.23;218238;1291;139118;-95
2023/04/12 05:20:40;;;;;;;13.40;6.90;;;;;;;5.81;100.00;100000.77;217623;1291;139248;-94
2023/04/12 05:25:45;;;;;;;15.20;7.20;;;;;;;5.87;100.00;100004.02;218242;1291;139231;-94
2023/04/12 05:30:46;;;;;;;10.80;5.80;;;;;;;5.94;100.00;100004.20;217685;1291;139331;-93
2023/04/12 05:35:47;;;;;;;11.40;6.30;;;;;;;6.00;100.00;100004.39;218037;1290;139084;-93
2023/04/12 05:40:48;;;;;;;13.50;6.60;;;;;;;6.06;100.00;100006.18;217957;1291;139194;-94
2023/04/12 05:45:52;;;;;;;11.10;5.20;;;;;;;6.13;100.00;99999.05;218227;1290;139351;-94
2023/04/12 05:50:53;;;;;;;13.10;6.10;;;;;;;6.22;100.00;99993.50;217491;1290;139233;-95
2023/04/12 05:55:54;;;;;;;16.20;7.00;;;;;;;6.33;100.00;99986.46;217935;1291;139255;-93
2023/04/12 06:00:55;;;;;;;62.00;27.60;;;;;;;6.45;100.00;99982.89;217241;1291;139234;-93
2023/04/12 06:05:56;;;;;;;30.40;17.10;;;;;;;6.61;100.00;99978.60;218062;1290;140054;-93
2023/04/12 06:10:57;;;;;;;22.70;11.20;;;;;;;6.75;100.00;99982.55;217706;1290;140129;-95
2023/04/12 06:15:57;;;;;;;13.80;6.80;;;;;;;6.90;100.00;99979.77;217814;1290;139624;-92
2023/04/12 06:20:59;;;;;;;14.90;7.00;;;;;;;7.00;100.00;99975.97;217793;1291;139155;-95
2023/04/12 06:26:00;;;;;;;17.00;7.00;;;;;;;7.12;100.00;99971.56;218051;1291;139082;-93
2023/04/12 06:31:00;;;;;;;16.30;9.10;;;;;;;7.23;100.00;99971.45;217388;1291;139134;-93
2023/04/12 06:36:01;;;;;;;19.40;9.80;;;;;;;7.36;100.00;99965.27;218291;1291;140591;-93
2023/04/12 06:41:01;;;;;;;19.10;9.50;;;;;;;7.51;100.00;99963.70;217436;1290;138260;-91
2023/04/12 06:46:02;;;;;;;24.60;9.10;;;;;;;7.63;100.00;99965.14;218077;1291;139012;-92
2023/04/12 06:51:03;;;;;;;14.00;8.40;;;;;;;7.73;100.00;99960.36;217416;1290;139475;-91
2023/04/12 06:56:04;;;;;;;16.30;8.30;;;;;;;7.84;100.00;99961.06;218015;1291;139277;-91
2023/04/12 07:01:06;;;;;;;17.00;8.60;;;;;;;7.97;100.00;99956.33;217508;1290;139422;-91
2023/04/12 07:06:07;;;;;;;16.30;8.90;;;;;;;8.10;100.00;99956.10;217957;1289;139866;-91
2023/04/12 07:11:07;;;;;;;15.70;8.30;;;;;;;8.20;100.00;99954.31;217664;1291;139509;-90
2023/04/12 07:16:07;;;;;;;16.80;9.20;;;;;;;8.29;100.00;99954.04;218025;1290;139589;-89
2023/04/12 07:21:08;;;;;;;17.80;9.50;;;;;;;8.31;100.00;99952.35;217567;1291;139709;-88
2023/04/12 07:26:09;;;;;;;17.40;9.50;;;;;;;8.26;100.00;99941.09;218189;1291;139278;-89
2023/04/12 07:31:09;;;;;;;14.30;8.60;;;;;;;8.37;100.00;99937.14;217554;1291;139641;-90
2023/04/12 07:36:10;;;;;;;21.00;10.00;;;;;;;8.61;100.00;99935.05;218042;1291;139169;-90
2023/04/12 07:41:11;;;;;;;16.80;10.50;;;;;;;8.87;100.00;99929.92;217470;1291;139995;-90
2023/04/12 07:46:11;;;;;;;12.70;7.60;;;;;;;9.07;100.00;99925.27;218040;1291;139039;-87
2023/04/12 07:51:12;;;;;;;14.90;8.20;;;;;;;9.11;100.00;99911.73;217359;1290;139183;-89
2023/04/12 07:56:13;;;;;;;13.80;8.40;;;;;;;9.39;100.00;99912.57;217956;1291;139079;-89
2023/04/12 08:01:14;;;;;;;15.00;8.30;;;;;;;9.68;100.00;99916.70;217469;1291;139280;-90
2023/04/12 08:06:14;;;;;;;17.40;8.80;;;;;;;9.91;100.00;99918.81;218038;1291;139143;-89
2023/04/12 08:11:15;;;;;;;13.70;7.90;;;;;;;10.02;100.00;99924.20;217617;1291;139405;-89
2023/04/12 08:16:15;;;;;;;17.30;8.90;;;;;;;10.12;100.00;99919.49;218033;1291;139175;-90
2023/04/12 08:21:16;;;;;;;13.90;8.40;;;;;;;10.24;100.00;99918.36;217614;1291;139155;-90
2023/04/12 08:26:16;;;;;;;13.40;7.60;;;;;;;10.40;100.00;99918.20;218075;1290;139577;-89
2023/04/12 08:31:17;;;;;;;14.70;7.80;;;;;;;10.56;100.00;99915.73;217430;1291;139845;-89
2023/04/12 08:36:18;;;;;;;12.90;6.70;;;;;;;10.75;100.00;99920.73;217845;1290;138949;-90
2023/04/12 08:41:19;;;;;;;12.50;6.70;;;;;;;10.92;100.00;99913.92;217493;1290;140161;-91
2023/04/12 08:46:19;;;;;;;13.70;6.20;;;;;;;11.27;100.00;99905.77;218121;1291;139910;-90
2023/04/12 08:51:21;;;;;;;13.80;8.10;;;;;;;11.65;100.00;99898.33;217639;1291;140146;-91
2023/04/12 08:56:22;;;;;;;14.90;7.20;;;;;;;12.14;99.91;99891.75;218218;1291;139334;-91
2023/04/12 09:01:23;;;;;;;11.70;6.10;;;;;;;12.64;98.86;99885.67;217549;1291;140316;-86
2023/04/12 09:06:23;;;;;;;10.60;6.00;;;;;;;13.22;96.48;99882.60;218088;1291;139915;-88
2023/04/12 09:11:26;;;;;;;9.20;5.50;;;;;;;13.71;95.31;99876.36;217665;1289;140099;-88
2023/04/12 09:16:41;;;;;;;13.20;6.30;;;;;;;14.29;94.25;99875.61;218120;1290;139123;-89
2023/04/12 09:21:55;;;;;;;9.90;4.50;;;;;;;14.89;91.13;99867.83;217390;1290;139761;-89
2023/04/12 09:27:05;;;;;;;8.00;4.40;;;;;;;15.22;88.39;99868.56;217986;1290;138632;-91
2023/04/12 09:32:07;;;;;;;8.50;4.20;;;;;;;15.76;86.10;99867.87;217516;1290;139616;-91
2023/04/12 09:37:15;;;;;;;8.60;4.10;;;;;;;16.09;84.35;99858.64;218166;1290;139065;-90
2023/04/12 09:42:15;;;;;;;10.40;5.30;;;;;;;16.26;78.51;99859.64;217404;1291;139568;-90
2023/04/12 09:47:16;;;;;;;9.80;5.20;;;;;;;16.05;77.93;99851.11;218141;1290;95972;-89
2023/04/12 09:52:17;;;;;;;12.10;5.60;;;;;;;15.95;78.87;99844.99;217419;1290;139170;-89
2023/04/12 09:57:19;;;;;;;11.30;6.00;;;;;;;15.90;74.83;99840.50;217984;1289;139640;-88
2023/04/12 10:02:26;;;;;;;12.00;6.90;;;;;;;15.65;74.68;99841.36;217508;1290;139931;-89
2023/04/12 10:07:27;;;;;;;11.60;6.80;;;;;;;15.68;75.77;99830.84;218049;1290;138831;-87
2023/04/12 10:12:27;;;;;;;18.00;8.20;;;;;;;15.81;74.00;99827.11;217488;1290;139163;-87
2023/04/12 10:17:28;;;;;;;13.60;6.60;;;;;;;15.88;76.24;99824.36;218180;1291;96117;-88
2023/04/12 10:22:28;;;;;;;13.20;6.80;;;;;;;15.95;74.24;99818.66;217606;1290;139020;-88
2023/04/12 10:27:29;;;;;;;13.50;5.80;;;;;;;15.93;73.24;99808.87;218065;1289;140881;-91
2023/04/12 10:32:30;;;;;;;13.20;7.40;;;;;;;15.64;70.52;99802.63;217556;1291;139336;-89
2023/04/12 10:38:00;;;;;;;14.60;6.20;;;;;;;14.91;69.79;99798.21;217935;1291;139010;-88
2023/04/12 10:43:22;;;;;;;11.20;6.10;;;;;;;14.65;72.06;99795.86;217248;1293;139122;-89
2023/04/12 10:48:36;;;;;;;10.60;6.70;;;;;;;14.52;73.21;99784.84;218079;1291;139762;-88
2023/04/12 10:53:40;;;;;;;11.10;5.60;;;;;;;14.51;72.74;99784.13;217455;1290;139076;-90
2023/04/12 10:58:46;;;;;;;12.30;5.40;;;;;;;14.60;72.28;99784.77;218265;1291;96367;-88
2023/04/12 11:04:13;;;;;;;12.30;6.50;;;;;;;14.24;71.13;99782.46;217577;1291;138795;-87
2023/04/12 11:09:24;;;;;;;12.70;6.60;;;;;;;13.85;71.88;99779.73;217628;1290;139764;-89
2023/04/12 11:14:34;;;;;;;12.10;6.70;;;;;;;13.53;72.19;99775.05;217897;1291;138508;-88
2023/04/12 11:19:39;;;;;;;9.00;4.90;;;;;;;13.21;72.65;99767.42;217507;1291;138794;-87
2023/04/12 11:24:42;;;;;;;10.50;5.70;;;;;;;12.99;72.77;99765.11;218034;1290;138923;-87
2023/04/12 11:29:45;;;;;;;11.20;5.80;;;;;;;12.85;73.63;99760.24;217357;1291;139213;-88
2023/04/12 11:34:46;;;;;;;9.00;4.70;;;;;;;12.83;73.04;99754.81;217914;1292;97237;-89
2023/04/12 11:39:50;;;;;;;11.60;5.70;;;;;;;12.71;73.23;99752.33;217530;1291;138772;-86
2023/04/12 11:44:52;;;;;;;9.60;5.10;;;;;;;12.65;74.11;99743.45;217927;1291;138768;-88
2023/04/12 11:49:54;;;;;;;14.10;6.30;;;;;;;12.66;74.59;99738.47;217531;1291;139497;-88
2023/04/12 11:54:57;;;;;;;12.30;5.30;;;;;;;12.81;75.13;99738.97;218089;1291;139319;-88
2023/04/12 11:59:59;;;;;;;11.80;4.90;;;;;;;12.80;73.95;99731.96;217533;1291;139764;-89
2023/04/12 12:04:59;;;;;;;9.70;4.60;;;;;;;12.80;74.57;99725.10;218185;1291;97057;-89
2023/04/12 12:10:00;;;;;;;9.60;5.30;;;;;;;12.84;74.50;99715.59;217566;1290;138761;-87
2023/04/12 12:15:00;;;;;;;12.60;5.80;;;;;;;12.88;74.63;99709.88;218038;1291;139076;-88
2023/04/12 12:20:03;;;;;;;10.20;5.50;;;;;;;12.85;73.97;99699.01;217317;1291;139221;-89
2023/04/12 12:25:04;;;;;;;10.20;5.30;;;;;;;12.88;74.39;99687.30;218008;1292;139387;-89
2023/04/12 12:30:10;;;;;;;12.10;4.80;;;;;;;13.07;73.46;99681.38;217617;1291;139568;-90
2023/04/12 12:35:12;;;;;;;11.60;5.60;;;;;;;13.25;72.88;99675.48;218497;1291;107617;-89
2023/04/12 12:40:13;;;;;;;9.80;5.30;;;;;;;13.46;72.48;99672.46;217484;1290;139600;-88
2023/04/12 12:45:16;;;;;;;9.50;5.20;;;;;;;13.60;71.70;99666.20;218095;1290;138922;-89
2023/04/12 12:50:18;;;;;;;10.40;5.50;;;;;;;13.73;70.54;99658.98;217408;1290;139249;-87
2023/04/12 12:55:20;;;;;;;10.20;5.50;;;;;;;13.72;70.94;99655.69;218125;1291;139170;-89
2023/04/12 13:00:22;;;;;;;9.70;4.80;;;;;;;13.85;70.98;99650.36;217692;1290;139483;-89
2023/04/12 13:05:23;;;;;;;10.60;5.00;;;;;;;14.02;71.24;99643.77;218069;1291;104957;-88
2023/04/12 13:10:25;;;;;;;12.20;6.20;;;;;;;14.33;70.19;99638.96;217503;1291;140085;-86
2023/04/12 13:15:25;;;;;;;9.50;4.50;;;;;;;14.44;68.84;99631.58;218088;1291;139330;-87
2023/04/12 13:20:26;;;;;;;6.40;3.70;;;;;;;14.64;68.44;99623.16;217561;1290;138790;-88
2023/04/12 13:25:27;;;;;;;7.60;4.10;;;;;;;14.76;66.34;99612.32;218093;1291;138614;-86
2023/04/12 13:30:27;;;;;;;8.30;4.50;;;;;;;14.68;65.41;99610.97;217375;1290;138783;-86
2023/04/12 13:35:28;;;;;;;6.50;4.00;;;;;;;14.70;65.06;99605.87;218147;1290;106091;-86
2023/04/12 13:40:28;;;;;;;9.60;4.60;;;;;;;14.73;64.78;99599.17;217576;1291;139192;-86
2023/04/12 13:45:29;;;;;;;8.40;4.50;;;;;;;14.72;64.52;99592.21;217952;1292;138510;-86
2023/04/12 13:50:29;;;;;;;8.60;4.40;;;;;;;14.63;64.71;99590.10;217434;1291;139211;-87
2023/04/12 13:55:30;;;;;;;8.70;5.20;;;;;;;14.57;64.50;99582.69;218011;1291;138493;-87
2023/04/12 14:00:30;;;;;;;6.90;3.90;;;;;;;14.42;64.79;99573.95;217333;1291;138739;-85
2023/04/12 14:05:30;;;;;;;5.70;3.10;;;;;;;14.37;62.21;99571.04;217958;1290;96052;-85
2023/04/12 14:10:31;;;;;;;10.20;3.50;;;;;;;14.35;62.19;99565.06;217425;1291;138628;-88
2023/04/12 14:15:31;;;;;;;6.70;2.80;;;;;;;14.50;62.95;99549.77;217972;1290;138496;-85
2023/04/12 14:20:32;;;;;;;7.40;3.00;;;;;;;14.55;61.20;99553.38;217458;1290;138874;-86
2023/04/12 14:25:35;;;;;;;5.80;2.70;;;;;;;14.43;60.79;99554.23;218001;1291;138702;-88
2023/04/12 14:30:36;;;;;;;5.10;2.70;;;;;;;14.36;61.19;99561.48;217468;1291;140234;-85
2023/04/12 14:35:36;;;;;;;7.90;3.10;;;;;;;14.38;60.53;99558.11;218022;1291;138334;-86
2023/04/12 14:40:37;;;;;;;6.40;3.20;;;;;;;14.39;60.77;99551.06;217510;1290;138105;-87
2023/04/12 14:45:37;;;;;;;6.40;3.00;;;;;;;14.48;61.93;99545.27;217949;1291;138695;-88
2023/04/12 14:50:38;;;;;;;4.50;2.30;;;;;;;14.57;60.91;99538.79;217500;1291;137977;-88
2023/04/12 14:55:38;;;;;;;5.50;2.90;;;;;;;14.50;59.38;99536.85;217986;1291;138665;-86
2023/04/12 15:00:40;;;;;;;4.60;2.50;;;;;;;14.39;60.11;99530.43;217401;1292;138011;-86
2023/04/12 15:05:41;;;;;;;10.40;3.00;;;;;;;14.30;59.92;99528.30;217789;1293;138943;-88
2023/04/12 15:10:41;;;;;;;6.40;2.80;;;;;;;14.21;60.45;99523.55;217543;1291;138577;-86
2023/04/12 15:15:45;;;;;;;6.60;3.20;;;;;;;14.01;60.02;99521.05;217876;1291;137645;-85
2023/04/12 15:20:46;;;;;;;5.90;2.90;;;;;;;13.79;59.36;99517.22;217360;1291;139043;-87
2023/04/12 15:25:46;;;;;;;5.50;2.90;;;;;;;13.61;60.64;99515.94;217820;1291;137874;-89
2023/04/12 15:30:48;;;;;;;7.90;3.30;;;;;;;13.55;60.66;99512.23;217412;1291;138804;-88
2023/04/12 15:35:48;;;;;;;5.70;3.10;;;;;;;13.43;60.74;99508.48;217842;1291;138854;-86
2023/04/12 15:40:58;;;;;;;6.60;2.70;;;;;;;13.26;61.53;99505.89;217429;1293;138152;-87
2023/04/12 15:46:00;;;;;;;6.30;2.70;;;;;;;13.17;61.84;99495.13;217890;1294;138756;-86
2023/04/12 15:51:01;;;;;;;4.40;2.40;;;;;;;13.04;60.24;99495.86;217568;1291;139223;-91
2023/04/12 15:56:03;;;;;;;5.40;2.40;;;;;;;12.87;59.98;99489.43;218043;1290;139247;-90
2023/04/12 16:01:04;;;;;;;8.10;3.80;;;;;;;12.75;60.77;99488.33;217596;1291;139102;-86
2023/04/12 16:06:04;;;;;;;7.60;3.70;;;;;;;12.62;61.11;99483.29;218008;1291;138767;-86
2023/04/12 16:11:07;;;;;;;5.70;2.70;;;;;;;12.51;62.16;99473.89;217602;1291;138315;-85
2023/04/12 16:16:11;;;;;;;5.40;2.10;;;;;;;12.39;62.34;99472.13;217858;1291;194574;-85
2023/04/12 16:21:17;;;;;;;5.70;2.50;;;;;;;12.27;61.65;99465.89;217386;1294;138090;-89
2023/04/12 16:26:23;;;;;;;4.50;2.50;;;;;;;12.15;61.88;99462.31;217894;1291;139637;-87
2023/04/12 16:31:25;;;;;;;5.40;2.30;;;;;;;12.07;61.78;99459.73;217394;1293;138278;-86
2023/04/12 16:36:26;;;;;;;5.60;2.80;;;;;;;12.03;62.91;99463.22;218007;1290;138276;-87
2023/04/12 16:41:26;;;;;;;8.20;3.20;;;;;;;11.95;62.86;99460.17;217708;1292;137855;-88
2023/04/12 16:46:27;;;;;;;6.70;2.70;;;;;;;11.82;63.75;99463.44;218096;1292;138496;-86
2023/04/12 16:51:27;;;;;;;6.10;2.60;;;;;;;11.67;64.64;99457.82;217593;1291;139157;-87
2023/04/12 16:56:28;;;;;;;8.10;3.20;;;;;;;11.55;65.51;99452.16;218146;1291;139040;-88
2023/04/12 17:01:29;;;;;;;8.00;3.10;;;;;;;11.45;65.82;99454.27;217442;1294;138347;-87
2023/04/12 17:06:32;;;;;;;7.80;3.00;;;;;;;11.35;66.37;99454.20;217834;1292;138906;-87
2023/04/12 17:11:34;;;;;;;13.60;5.10;;;;;;;11.27;66.44;99451.52;217678;1292;137971;-86
2023/04/12 17:16:34;;;;;;;9.40;3.20;;;;;;;11.15;66.74;99442.31;218168;1291;96148;-87
2023/04/12 17:21:41;;;;;;;7.80;4.10;;;;;;;11.07;67.25;99441.83;217515;1292;137845;-86
2023/04/12 17:26:41;;;;;;;9.10;4.40;;;;;;;10.97;67.71;99438.67;217897;1291;138661;-87
2023/04/12 17:31:44;;;;;;;10.90;5.10;;;;;;;10.88;68.57;99435.57;217401;1291;139809;-87
2023/04/12 17:36:45;;;;;;;13.10;6.10;;;;;;;10.80;69.22;99439.95;218168;1294;139537;-87
2023/04/12 17:41:46;;;;;;;10.70;5.50;;;;;;;10.71;69.63;99441.80;217504;1292;139411;-89
2023/04/12 17:46:47;;;;;;;12.10;6.30;;;;;;;10.61;70.48;99439.80;218070;1291;96183;-88
2023/04/12 17:51:47;;;;;;;12.80;6.60;;;;;;;10.54;71.01;99442.59;217628;1291;139064;-88
2023/04/12 17:56:49;;;;;;;16.80;8.00;;;;;;;10.46;71.05;99446.79;218079;1291;138070;-88
2023/04/12 18:01:50;;;;;;;13.20;6.20;;;;;;;10.36;71.87;99443.62;217580;1291;138805;-86
2023/04/12 18:06:51;;;;;;;12.60;5.60;;;;;;;10.31;72.78;99444.73;217988;1292;138312;-89
2023/04/12 18:11:52;;;;;;;16.30;6.70;;;;;;;10.22;72.57;99444.61;217541;1290;139332;-85
2023/04/12 18:16:52;;;;;;;16.40;9.00;;;;;;;10.14;72.95;99450.45;218107;1292;96228;-87
2023/04/12 18:21:53;;;;;;;23.50;11.00;;;;;;;10.06;73.16;99450.62;217522;1292;138990;-87
2023/04/12 18:26:53;;;;;;;15.60;7.30;;;;;;;9.96;73.56;99440.88;218103;1290;139804;-88
2023/04/12 18:31:54;;;;;;;13.80;6.70;;;;;;;9.89;73.84;99445.85;217594;1291;139073;-88
2023/04/12 18:36:55;;;;;;;13.20;6.90;;;;;;;9.82;74.34;99445.70;218129;1291;138631;-87
2023/04/12 18:41:56;;;;;;;20.80;6.90;;;;;;;9.73;74.21;99447.52;217477;1292;138682;-88
2023/04/12 18:46:57;;;;;;;14.10;6.40;;;;;;;9.67;74.69;99447.21;218160;1291;96541;-87
2023/04/12 18:51:58;;;;;;;16.60;7.20;;;;;;;9.63;75.59;99444.78;217581;1291;138850;-87
2023/04/12 18:57:00;;;;;;;19.30;9.70;;;;;;;9.57;75.75;99442.90;218133;1290;138281;-88
2023/04/12 19:02:01;;;;;;;20.40;11.60;;;;;;;9.49;76.08;99441.50;217539;1291;138625;-88
2023/04/12 19:07:02;;;;;;;20.80;11.60;;;;;;;9.42;76.66;99438.67;218078;1291;139309;-87
2023/04/12 19:12:04;;;;;;;20.40;10.40;;;;;;;9.36;77.12;99438.84;217547;1293;139183;-88
2023/04/12 19:17:05;;;;;;;21.60;11.20;;;;;;;9.29;77.36;99438.84;218258;1291;96081;-86
2023/04/12 19:22:05;;;;;;;23.70;11.30;;;;;;;9.25;77.56;99437.27;217591;1291;138924;-89
2023/04/12 19:27:07;;;;;;;21.20;12.30;;;;;;;9.19;77.28;99439.61;218111;1294;139477;-88
2023/04/12 19:32:11;;;;;;;21.00;11.20;;;;;;;9.15;77.78;99436.08;217466;1292;139570;-90
2023/04/12 19:37:12;;;;;;;19.00;9.70;;;;;;;9.10;77.85;99436.46;217982;1290;138665;-90
2023/04/12 19:42:16;;;;;;;19.90;10.20;;;;;;;9.06;77.99;99431.91;217468;1292;139192;-89
2023/04/12 19:47:17;;;;;;;22.50;10.70;;;;;;;9.04;78.01;99429.64;218024;1292;106767;-88
2023/04/12 19:52:20;;;;;;;20.00;10.20;;;;;;;9.03;77.89;99428.63;217504;1292;138959;-90
2023/04/12 19:57:22;;;;;;;20.70;10.60;;;;;;;9.04;78.06;99425.86;217993;1291;139108;-87
2023/04/12 20:02:23;;;;;;;22.40;9.30;;;;;;;9.04;78.03;99424.14;217524;1291;139211;-88
2023/04/12 20:07:24;;;;;;;20.20;8.50;;;;;;;9.05;77.83;99413.57;217985;1292;138496;-89
2023/04/12 20:12:24;;;;;;;15.00;7.70;;;;;;;9.08;77.70;99407.77;217510;1292;139095;-89
2023/04/12 20:17:26;;;;;;;19.40;7.20;;;;;;;9.09;77.90;99398.90;218299;1291;95911;-88
2023/04/12 20:22:27;;;;;;;18.10;8.70;;;;;;;9.10;78.26;99388.80;217472;1292;138227;-86
2023/04/12 20:27:28;;;;;;;28.00;13.60;;;;;;;9.08;78.22;99386.04;217950;1291;139472;-89
2023/04/12 20:32:29;;;;;;;23.60;11.50;;;;;;;9.05;78.58;99386.67;217507;1291;139308;-88
2023/04/12 20:37:30;;;;;;;21.70;9.70;;;;;;;9.03;79.07;99382.52;218096;1291;139182;-89
2023/04/12 20:42:30;;;;;;;18.40;9.70;;;;;;;9.00;79.37;99381.81;217454;1292;139532;-90
2023/04/12 20:47:32;;;;;;;25.20;10.60;;;;;;;8.98;79.60;99387.38;218008;1295;95863;-88
2023/04/12 20:52:33;;;;;;;25.10;11.80;;;;;;;8.95;79.19;99382.83;217304;1292;139419;-88
2023/04/12 20:57:34;;;;;;;21.80;9.80;;;;;;;8.94;79.17;99378.82;217667;1292;139154;-87
2023/04/12 21:02:37;;;;;;;20.10;9.40;;;;;;;8.92;79.23;99375.06;217364;1291;138555;-88
2023/04/12 21:07:40;;;;;;;20.60;9.70;;;;;;;8.91;79.19;99372.15;217781;1292;139356;-88
2023/04/12 21:12:41;;;;;;;20.50;8.90;;;;;;;8.90;78.99;99370.51;217419;1292;138782;-89
2023/04/12 21:17:42;;;;;;;18.30;8.50;;;;;;;8.90;79.12;99365.56;217941;1291;139429;-89
2023/04/12 21:22:44;;;;;;;17.70;9.00;;;;;;;8.92;79.00;99354.75;217571;1291;138554;-89
2023/04/12 21:27:45;;;;;;;19.40;9.30;;;;;;;8.93;79.04;99348.88;217967;1291;138316;-90
2023/04/12 21:32:46;;;;;;;20.90;9.40;;;;;;;8.95;79.13;99341.58;217316;1291;139240;-89
2023/04/12 21:37:48;;;;;;;20.50;10.50;;;;;;;8.96;79.29;99331.70;217994;1292;138847;-90
2023/04/12 21:42:48;;;;;;;22.00;10.30;;;;;;;8.95;79.60;99326.06;217518;1291;138499;-92
2023/04/12 21:47:50;;;;;;;18.10;10.00;;;;;;;8.93;79.95;99305.14;217930;1293;138997;-89
2023/04/12 21:52:53;;;;;;;20.20;11.10;;;;;;;8.90;80.54;99297.61;217423;1293;138767;-89
2023/04/12 21:57:53;;;;;;;21.60;13.20;;;;;;;8.88;80.80;99304.12;217992;1292;138401;-90
2023/04/12 22:02:54;;;;;;;19.80;11.50;;;;;;;8.87;81.46;99298.71;217526;1290;139228;-89
2023/04/12 22:07:55;;;;;;;23.00;10.80;;;;;;;8.84;81.95;99299.73;217934;1291;138755;-89
2023/04/12 22:12:55;;;;;;;21.10;11.70;;;;;;;8.82;82.57;99301.85;217520;1291;139153;-90
2023/04/12 22:17:56;;;;;;;24.00;13.40;;;;;;;8.78;83.14;99293.23;218042;1290;138485;-90
2023/04/12 22:22:57;;;;;;;22.50;13.10;;;;;;;8.75;83.68;99292.44;217386;1290;138851;-89
2023/04/12 22:27:57;;;;;;;26.80;13.50;;;;;;;8.71;84.25;99295.89;217828;1290;138736;-88
2023/04/12 22:32:58;;;;;;;27.20;13.70;;;;;;;8.66;85.15;99296.75;217385;1290;139401;-88
2023/04/12 22:37:59;;;;;;;29.80;15.40;;;;;;;8.62;85.80;99296.44;217942;1291;138794;-88
2023/04/12 22:42:59;;;;;;;27.50;14.90;;;;;;;8.59;86.30;99309.28;217608;1290;139238;-88
2023/04/12 22:48:01;;;;;;;27.60;15.70;;;;;;;8.58;86.49;99318.59;218039;1291;139130;-87
2023/04/12 22:53:02;;;;;;;28.10;16.80;;;;;;;8.59;86.86;99321.98;217668;1291;138749;-87
2023/04/12 22:58:05;;;;;;;28.00;16.20;;;;;;;8.57;87.47;99315.16;218190;1291;138536;-88